sensor_id;sensor_type;location;lat;lon;timestamp;P1;durP1;ratioP1;P2;durP2;ratioP2
6531;SDS011;3299;42.004;24.868;2023-04-03T00:00:39;0.93;;;0.80;;
6531;SDS011;3299;42.004;24.868;2023-04-03T00:03:05;1.20;;;0.80;;
6531;SDS011;3299;42.004;24.868;2023-04-03T00:05:30;1.15;;;1.05;;
6531;SDS011;3299;42.004;24.868;2023-04-03T00:07:56;0.90;;;0.90;;
6531;SDS011;3299;42.004;24.868;2023-04-03T00:10:21;1.05;;;0.80;;
6531;SDS011;3299;42.004;24.868;2023-04-03T00:12:47;3.20;;;0.80;;
6531;SDS011;3299;42.004;24.868;2023-04-03T00:15:13;3.85;;;0.60;;
6531;SDS011;3299;42.004;24.868;2023-04-03T00:17:38;0.90;;;0.90;;
6531;SDS011;3299;42.004;24.868;2023-04-03T00:20:04;0.90;;;0.90;;
6531;SDS011;3299;42.004;24.868;2023-04-03T00:22:30;1.30;;;1.30;;
6531;SDS011;3299;42.004;24.868;2023-04-03T00:24:56;2.80;;;0.98;;
6531;SDS011;3299;42.004;24.868;2023-04-03T00:27:21;1.10;;;1.00;;
6531;SDS011;3299;42.004;24.868;2023-04-03T00:29:47;0.90;;;0.90;;
6531;SDS011;3299;42.004;24.868;2023-04-03T00:32:12;1.00;;;1.00;;
6531;SDS011;3299;42.004;24.868;2023-04-03T00:34:38;1.00;;;0.90;;
6531;SDS011;3299;42.004;24.868;2023-04-03T00:37:03;0.90;;;0.90;;
6531;SDS011;3299;42.004;24.868;2023-04-03T00:39:29;2.55;;;0.95;;
6531;SDS011;3299;42.004;24.868;2023-04-03T00:41:55;0.90;;;0.90;;
6531;SDS011;3299;42.004;24.868;2023-04-03T00:46:58;0.80;;;0.80;;
6531;SDS011;3299;42.004;24.868;2023-04-03T00:49:24;1.42;;;0.90;;
6531;SDS011;3299;42.004;24.868;2023-04-03T00:51:50;1.10;;;1.00;;
6531;SDS011;3299;42.004;24.868;2023-04-03T00:54:16;0.90;;;0.90;;
6531;SDS011;3299;42.004;24.868;2023-04-03T00:56:42;1.00;;;1.00;;
6531;SDS011;3299;42.004;24.868;2023-04-03T00:59:10;0.93;;;0.93;;
6531;SDS011;3299;42.004;24.868;2023-04-03T01:01:40;0.90;;;0.90;;
6531;SDS011;3299;42.004;24.868;2023-04-03T01:04:24;0.80;;;0.80;;
6531;SDS011;3299;42.004;24.868;2023-04-03T01:07:04;0.82;;;0.82;;
6531;SDS011;3299;42.004;24.868;2023-04-03T01:09:32;0.82;;;0.82;;
6531;SDS011;3299;42.004;24.868;2023-04-03T01:15:01;1.77;;;0.80;;
6531;SDS011;3299;42.004;24.868;2023-04-03T01:17:38;0.77;;;0.77;;
6531;SDS011;3299;42.004;24.868;2023-04-03T01:22:42;0.93;;;0.93;;
6531;SDS011;3299;42.004;24.868;2023-04-03T01:25:11;1.10;;;1.00;;
6531;SDS011;3299;42.004;24.868;2023-04-03T01:27:36;1.30;;;0.95;;
6531;SDS011;3299;42.004;24.868;2023-04-03T01:30:02;1.30;;;0.93;;
6531;SDS011;3299;42.004;24.868;2023-04-03T01:32:28;0.88;;;0.88;;
6531;SDS011;3299;42.004;24.868;2023-04-03T01:34:53;0.80;;;0.80;;
6531;SDS011;3299;42.004;24.868;2023-04-03T01:37:18;2.55;;;1.00;;
6531;SDS011;3299;42.004;24.868;2023-04-03T01:39:44;0.75;;;0.75;;
6531;SDS011;3299;42.004;24.868;2023-04-03T01:42:09;1.65;;;0.90;;
6531;SDS011;3299;42.004;24.868;2023-04-03T01:44:36;0.90;;;0.90;;
6531;SDS011;3299;42.004;24.868;2023-04-03T01:47:02;0.80;;;0.80;;
6531;SDS011;3299;42.004;24.868;2023-04-03T01:49:31;0.70;;;0.70;;
6531;SDS011;3299;42.004;24.868;2023-04-03T01:51:58;1.55;;;0.90;;
6531;SDS011;3299;42.004;24.868;2023-04-03T01:54:24;0.70;;;0.70;;
6531;SDS011;3299;42.004;24.868;2023-04-03T01:56:49;0.90;;;0.90;;
6531;SDS011;3299;42.004;24.868;2023-04-03T01:59:15;0.93;;;0.93;;
6531;SDS011;3299;42.004;24.868;2023-04-03T02:01:42;1.45;;;1.00;;
6531;SDS011;3299;42.004;24.868;2023-04-03T02:04:10;1.08;;;1.02;;
6531;SDS011;3299;42.004;24.868;2023-04-03T02:06:36;0.90;;;0.90;;
6531;SDS011;3299;42.004;24.868;2023-04-03T02:09:01;1.90;;;1.00;;
6531;SDS011;3299;42.004;24.868;2023-04-03T02:11:26;1.00;;;1.00;;
6531;SDS011;3299;42.004;24.868;2023-04-03T02:13:52;0.80;;;0.80;;
6531;SDS011;3299;42.004;24.868;2023-04-03T02:16:17;1.92;;;1.00;;
6531;SDS011;3299;42.004;24.868;2023-04-03T02:18:43;1.45;;;1.00;;
6531;SDS011;3299;42.004;24.868;2023-04-03T02:21:08;1.00;;;0.90;;
6531;SDS011;3299;42.004;24.868;2023-04-03T02:23:33;0.82;;;0.82;;
6531;SDS011;3299;42.004;24.868;2023-04-03T02:26:04;1.02;;;0.90;;
6531;SDS011;3299;42.004;24.868;2023-04-03T02:28:35;1.23;;;1.13;;
6531;SDS011;3299;42.004;24.868;2023-04-03T02:31:00;1.00;;;1.00;;
6531;SDS011;3299;42.004;24.868;2023-04-03T02:33:27;1.02;;;0.90;;
6531;SDS011;3299;42.004;24.868;2023-04-03T02:35:53;2.08;;;0.98;;
6531;SDS011;3299;42.004;24.868;2023-04-03T02:38:19;0.80;;;0.80;;
6531;SDS011;3299;42.004;24.868;2023-04-03T02:40:45;1.05;;;0.98;;
6531;SDS011;3299;42.004;24.868;2023-04-03T02:43:10;0.88;;;0.70;;
6531;SDS011;3299;42.004;24.868;2023-04-03T02:45:36;0.80;;;0.80;;
6531;SDS011;3299;42.004;24.868;2023-04-03T02:48:01;1.10;;;1.00;;
6531;SDS011;3299;42.004;24.868;2023-04-03T02:50:27;0.90;;;0.90;;
6531;SDS011;3299;42.004;24.868;2023-04-03T02:52:52;1.67;;;0.80;;
6531;SDS011;3299;42.004;24.868;2023-04-03T02:55:17;4.10;;;0.80;;
6531;SDS011;3299;42.004;24.868;2023-04-03T02:57:43;1.52;;;1.00;;
6531;SDS011;3299;42.004;24.868;2023-04-03T03:00:08;1.58;;;0.93;;
6531;SDS011;3299;42.004;24.868;2023-04-03T03:02:34;0.88;;;0.88;;
6531;SDS011;3299;42.004;24.868;2023-04-03T03:05:00;4.80;;;1.08;;
6531;SDS011;3299;42.004;24.868;2023-04-03T03:07:26;2.78;;;1.73;;
6531;SDS011;3299;42.004;24.868;2023-04-03T03:09:51;1.80;;;1.10;;
6531;SDS011;3299;42.004;24.868;2023-04-03T03:12:17;1.10;;;0.82;;
6531;SDS011;3299;42.004;24.868;2023-04-03T03:14:46;0.70;;;0.70;;
6531;SDS011;3299;42.004;24.868;2023-04-03T03:17:12;2.13;;;1.00;;
6531;SDS011;3299;42.004;24.868;2023-04-03T03:19:38;0.90;;;0.90;;
6531;SDS011;3299;42.004;24.868;2023-04-03T03:22:03;1.65;;;0.82;;
6531;SDS011;3299;42.004;24.868;2023-04-03T03:24:28;0.80;;;0.80;;
6531;SDS011;3299;42.004;24.868;2023-04-03T03:26:54;2.97;;;0.90;;
6531;SDS011;3299;42.004;24.868;2023-04-03T03:29:19;0.80;;;0.80;;
6531;SDS011;3299;42.004;24.868;2023-04-03T03:31:45;0.80;;;0.80;;
6531;SDS011;3299;42.004;24.868;2023-04-03T03:34:11;0.85;;;0.82;;
6531;SDS011;3299;42.004;24.868;2023-04-03T03:36:36;1.00;;;0.90;;
6531;SDS011;3299;42.004;24.868;2023-04-03T03:39:02;0.93;;;0.93;;
6531;SDS011;3299;42.004;24.868;2023-04-03T03:41:27;1.27;;;0.73;;
6531;SDS011;3299;42.004;24.868;2023-04-03T03:43:53;0.77;;;0.77;;
6531;SDS011;3299;42.004;24.868;2023-04-03T03:46:18;1.00;;;1.00;;
6531;SDS011;3299;42.004;24.868;2023-04-03T03:48:44;1.20;;;1.10;;
6531;SDS011;3299;42.004;24.868;2023-04-03T03:51:09;0.80;;;0.80;;
6531;SDS011;3299;42.004;24.868;2023-04-03T03:53:35;1.27;;;1.20;;
6531;SDS011;3299;42.004;24.868;2023-04-03T03:56:01;0.88;;;0.88;;
6531;SDS011;3299;42.004;24.868;2023-04-03T03:58:26;1.38;;;1.10;;
6531;SDS011;3299;42.004;24.868;2023-04-03T04:00:52;1.80;;;1.17;;
6531;SDS011;3299;42.004;24.868;2023-04-03T04:03:17;1.00;;;1.00;;
6531;SDS011;3299;42.004;24.868;2023-04-03T04:05:43;0.98;;;0.95;;
6531;SDS011;3299;42.004;24.868;2023-04-03T04:08:08;0.95;;;0.90;;
6531;SDS011;3299;42.004;24.868;2023-04-03T04:10:34;0.80;;;0.80;;
6531;SDS011;3299;42.004;24.868;2023-04-03T04:13:00;3.80;;;0.80;;
6531;SDS011;3299;42.004;24.868;2023-04-03T04:15:26;1.55;;;1.02;;
6531;SDS011;3299;42.004;24.868;2023-04-03T04:17:52;0.82;;;0.80;;
6531;SDS011;3299;42.004;24.868;2023-04-03T04:20:18;1.08;;;0.98;;
6531;SDS011;3299;42.004;24.868;2023-04-03T04:22:43;0.85;;;0.85;;
6531;SDS011;3299;42.004;24.868;2023-04-03T04:25:09;0.95;;;0.95;;
6531;SDS011;3299;42.004;24.868;2023-04-03T04:27:35;0.98;;;0.98;;
6531;SDS011;3299;42.004;24.868;2023-04-03T04:30:02;1.05;;;0.95;;
6531;SDS011;3299;42.004;24.868;2023-04-03T04:32:28;2.33;;;1.13;;
6531;SDS011;3299;42.004;24.868;2023-04-03T04:34:53;1.00;;;1.00;;
6531;SDS011;3299;42.004;24.868;2023-04-03T04:37:19;0.88;;;0.88;;
6531;SDS011;3299;42.004;24.868;2023-04-03T04:39:44;1.20;;;1.02;;
6531;SDS011;3299;42.004;24.868;2023-04-03T04:42:09;1.00;;;1.00;;
6531;SDS011;3299;42.004;24.868;2023-04-03T04:44:37;1.20;;;1.20;;
6531;SDS011;3299;42.004;24.868;2023-04-03T04:47:03;0.90;;;0.90;;
6531;SDS011;3299;42.004;24.868;2023-04-03T04:49:29;0.98;;;0.98;;
6531;SDS011;3299;42.004;24.868;2023-04-03T04:51:55;1.02;;;1.02;;
6531;SDS011;3299;42.004;24.868;2023-04-03T04:54:20;1.48;;;0.90;;
6531;SDS011;3299;42.004;24.868;2023-04-03T04:56:46;1.35;;;1.00;;
6531;SDS011;3299;42.004;24.868;2023-04-03T04:59:11;0.90;;;0.90;;
6531;SDS011;3299;42.004;24.868;2023-04-03T05:01:37;1.23;;;0.98;;
6531;SDS011;3299;42.004;24.868;2023-04-03T05:04:03;0.90;;;0.90;;
6531;SDS011;3299;42.004;24.868;2023-04-03T05:06:28;0.80;;;0.80;;
6531;SDS011;3299;42.004;24.868;2023-04-03T05:08:55;0.80;;;0.80;;
6531;SDS011;3299;42.004;24.868;2023-04-03T05:11:21;1.08;;;0.88;;
6531;SDS011;3299;42.004;24.868;2023-04-03T05:13:46;1.00;;;1.00;;
6531;SDS011;3299;42.004;24.868;2023-04-03T05:16:12;3.00;;;0.82;;
6531;SDS011;3299;42.004;24.868;2023-04-03T05:18:37;1.85;;;0.95;;
6531;SDS011;3299;42.004;24.868;2023-04-03T05:21:03;1.00;;;1.00;;
6531;SDS011;3299;42.004;24.868;2023-04-03T05:23:28;0.98;;;0.98;;
6531;SDS011;3299;42.004;24.868;2023-04-03T05:25:54;0.75;;;0.75;;
6531;SDS011;3299;42.004;24.868;2023-04-03T05:28:19;1.00;;;1.00;;
6531;SDS011;3299;42.004;24.868;2023-04-03T05:30:44;1.00;;;0.90;;
6531;SDS011;3299;42.004;24.868;2023-04-03T05:33:10;1.00;;;0.77;;
6531;SDS011;3299;42.004;24.868;2023-04-03T05:35:36;0.80;;;0.80;;
6531;SDS011;3299;42.004;24.868;2023-04-03T05:38:06;0.90;;;0.90;;
6531;SDS011;3299;42.004;24.868;2023-04-03T05:40:32;2.28;;;0.90;;
6531;SDS011;3299;42.004;24.868;2023-04-03T05:42:57;0.82;;;0.82;;
6531;SDS011;3299;42.004;24.868;2023-04-03T05:45:23;1.02;;;1.00;;
6531;SDS011;3299;42.004;24.868;2023-04-03T05:47:48;1.98;;;1.10;;
6531;SDS011;3299;42.004;24.868;2023-04-03T05:50:14;0.90;;;0.90;;
6531;SDS011;3299;42.004;24.868;2023-04-03T05:52:40;1.75;;;0.70;;
6531;SDS011;3299;42.004;24.868;2023-04-03T05:55:10;1.08;;;0.98;;
6531;SDS011;3299;42.004;24.868;2023-04-03T05:57:36;0.73;;;0.73;;
6531;SDS011;3299;42.004;24.868;2023-04-03T06:00:02;1.52;;;1.00;;
6531;SDS011;3299;42.004;24.868;2023-04-03T06:02:33;1.23;;;1.13;;
6531;SDS011;3299;42.004;24.868;2023-04-03T06:04:58;1.02;;;1.02;;
6531;SDS011;3299;42.004;24.868;2023-04-03T06:07:24;0.70;;;0.70;;
6531;SDS011;3299;42.004;24.868;2023-04-03T06:09:53;2.10;;;1.02;;
6531;SDS011;3299;42.004;24.868;2023-04-03T06:12:20;1.10;;;1.00;;
6531;SDS011;3299;42.004;24.868;2023-04-03T06:14:46;1.00;;;1.00;;
6531;SDS011;3299;42.004;24.868;2023-04-03T06:17:12;1.60;;;1.50;;
6531;SDS011;3299;42.004;24.868;2023-04-03T06:19:38;2.80;;;2.55;;
6531;SDS011;3299;42.004;24.868;2023-04-03T06:22:04;2.63;;;2.38;;
6531;SDS011;3299;42.004;24.868;2023-04-03T06:24:30;2.75;;;2.08;;
6531;SDS011;3299;42.004;24.868;2023-04-03T06:26:56;1.92;;;1.58;;
6531;SDS011;3299;42.004;24.868;2023-04-03T06:29:22;3.53;;;2.40;;
6531;SDS011;3299;42.004;24.868;2023-04-03T06:31:48;2.78;;;2.42;;
6531;SDS011;3299;42.004;24.868;2023-04-03T06:34:14;5.07;;;3.20;;
6531;SDS011;3299;42.004;24.868;2023-04-03T06:36:40;5.05;;;3.80;;
6531;SDS011;3299;42.004;24.868;2023-04-03T06:39:06;2.40;;;2.20;;
6531;SDS011;3299;42.004;24.868;2023-04-03T06:41:32;1.75;;;1.65;;
6531;SDS011;3299;42.004;24.868;2023-04-03T06:43:58;1.52;;;1.42;;
6531;SDS011;3299;42.004;24.868;2023-04-03T06:46:24;1.48;;;1.40;;
6531;SDS011;3299;42.004;24.868;2023-04-03T06:48:51;1.30;;;1.20;;
6531;SDS011;3299;42.004;24.868;2023-04-03T06:51:21;2.15;;;1.85;;
6531;SDS011;3299;42.004;24.868;2023-04-03T06:53:52;1.70;;;1.60;;
6531;SDS011;3299;42.004;24.868;2023-04-03T06:56:20;1.85;;;1.73;;
6531;SDS011;3299;42.004;24.868;2023-04-03T06:58:46;1.40;;;1.30;;
6531;SDS011;3299;42.004;24.868;2023-04-03T07:01:13;2.28;;;1.50;;
6531;SDS011;3299;42.004;24.868;2023-04-03T07:03:40;1.88;;;1.30;;
6531;SDS011;3299;42.004;24.868;2023-04-03T07:06:06;1.58;;;1.35;;
6531;SDS011;3299;42.004;24.868;2023-04-03T07:08:33;3.53;;;2.92;;
6531;SDS011;3299;42.004;24.868;2023-04-03T07:10:59;6.43;;;4.00;;
6531;SDS011;3299;42.004;24.868;2023-04-03T07:13:25;1.95;;;1.55;;
6531;SDS011;3299;42.004;24.868;2023-04-03T07:15:51;2.38;;;2.17;;
6531;SDS011;3299;42.004;24.868;2023-04-03T07:18:17;2.85;;;1.90;;
6531;SDS011;3299;42.004;24.868;2023-04-03T07:20:42;2.10;;;1.90;;
6531;SDS011;3299;42.004;24.868;2023-04-03T07:23:08;3.88;;;2.08;;
6531;SDS011;3299;42.004;24.868;2023-04-03T07:25:34;3.25;;;2.70;;
6531;SDS011;3299;42.004;24.868;2023-04-03T07:27:59;2.65;;;2.40;;
6531;SDS011;3299;42.004;24.868;2023-04-03T07:30:25;1.90;;;1.80;;
6531;SDS011;3299;42.004;24.868;2023-04-03T07:32:51;2.30;;;1.83;;
6531;SDS011;3299;42.004;24.868;2023-04-03T07:35:17;4.15;;;2.45;;
6531;SDS011;3299;42.004;24.868;2023-04-03T07:37:42;6.47;;;2.28;;
6531;SDS011;3299;42.004;24.868;2023-04-03T07:40:08;4.47;;;2.78;;
6531;SDS011;3299;42.004;24.868;2023-04-03T07:42:34;2.58;;;2.38;;
6531;SDS011;3299;42.004;24.868;2023-04-03T07:45:01;5.45;;;2.65;;
6531;SDS011;3299;42.004;24.868;2023-04-03T07:47:27;2.45;;;2.25;;
6531;SDS011;3299;42.004;24.868;2023-04-03T07:49:55;2.90;;;2.70;;
6531;SDS011;3299;42.004;24.868;2023-04-03T07:52:22;2.75;;;2.15;;
6531;SDS011;3299;42.004;24.868;2023-04-03T07:54:48;6.22;;;3.45;;
6531;SDS011;3299;42.004;24.868;2023-04-03T07:57:13;6.00;;;3.83;;
6531;SDS011;3299;42.004;24.868;2023-04-03T07:59:39;6.85;;;4.15;;
6531;SDS011;3299;42.004;24.868;2023-04-03T08:02:07;10.32;;;3.60;;
6531;SDS011;3299;42.004;24.868;2023-04-03T08:04:34;10.32;;;4.43;;
6531;SDS011;3299;42.004;24.868;2023-04-03T08:07:00;8.93;;;4.35;;
6531;SDS011;3299;42.004;24.868;2023-04-03T08:09:25;15.55;;;7.45;;
6531;SDS011;3299;42.004;24.868;2023-04-03T08:11:51;14.05;;;5.90;;
6531;SDS011;3299;42.004;24.868;2023-04-03T08:14:18;6.15;;;4.40;;
6531;SDS011;3299;42.004;24.868;2023-04-03T08:16:44;6.07;;;3.78;;
6531;SDS011;3299;42.004;24.868;2023-04-03T08:19:11;7.55;;;6.75;;
6531;SDS011;3299;42.004;24.868;2023-04-03T08:21:38;6.75;;;5.15;;
6531;SDS011;3299;42.004;24.868;2023-04-03T08:24:06;6.85;;;4.18;;
6531;SDS011;3299;42.004;24.868;2023-04-03T08:26:32;9.77;;;3.90;;
6531;SDS011;3299;42.004;24.868;2023-04-03T08:28:58;5.50;;;3.80;;
6531;SDS011;3299;42.004;24.868;2023-04-03T08:31:23;5.93;;;3.30;;
6531;SDS011;3299;42.004;24.868;2023-04-03T08:33:49;5.07;;;3.50;;
6531;SDS011;3299;42.004;24.868;2023-04-03T08:36:16;5.93;;;3.55;;
6531;SDS011;3299;42.004;24.868;2023-04-03T08:38:42;3.33;;;3.03;;
6531;SDS011;3299;42.004;24.868;2023-04-03T08:41:14;3.88;;;3.30;;
6531;SDS011;3299;42.004;24.868;2023-04-03T08:43:54;4.80;;;3.70;;
6531;SDS011;3299;42.004;24.868;2023-04-03T08:52:01;4.78;;;3.80;;
6531;SDS011;3299;42.004;24.868;2023-04-03T08:54:32;5.78;;;3.83;;
6531;SDS011;3299;42.004;24.868;2023-04-03T08:57:00;5.85;;;3.45;;
6531;SDS011;3299;42.004;24.868;2023-04-03T08:59:29;4.75;;;2.92;;
6531;SDS011;3299;42.004;24.868;2023-04-03T09:02:00;4.43;;;2.75;;
6531;SDS011;3299;42.004;24.868;2023-04-03T09:04:41;4.30;;;3.35;;
6531;SDS011;3299;42.004;24.868;2023-04-03T09:07:10;3.85;;;2.70;;
6531;SDS011;3299;42.004;24.868;2023-04-03T09:09:42;3.90;;;2.92;;
6531;SDS011;3299;42.004;24.868;2023-04-03T09:15:27;16.27;;;8.07;;
6531;SDS011;3299;42.004;24.868;2023-04-03T09:23:12;5.78;;;4.70;;
6531;SDS011;3299;42.004;24.868;2023-04-03T09:25:42;10.65;;;7.03;;
6531;SDS011;3299;42.004;24.868;2023-04-03T09:28:08;4.70;;;3.47;;
6531;SDS011;3299;42.004;24.868;2023-04-03T09:30:37;3.22;;;2.50;;
6531;SDS011;3299;42.004;24.868;2023-04-03T09:33:03;12.15;;;7.93;;
6531;SDS011;3299;42.004;24.868;2023-04-03T09:35:34;18.55;;;11.05;;
6531;SDS011;3299;42.004;24.868;2023-04-03T09:38:20;2.00;;;1.77;;
6531;SDS011;3299;42.004;24.868;2023-04-03T09:40:51;2.22;;;2.03;;
6531;SDS011;3299;42.004;24.868;2023-04-03T09:43:28;3.10;;;2.05;;
6531;SDS011;3299;42.004;24.868;2023-04-03T09:45:56;3.15;;;2.58;;
6531;SDS011;3299;42.004;24.868;2023-04-03T09:51:37;3.60;;;1.70;;
6531;SDS011;3299;42.004;24.868;2023-04-03T09:57:10;3.03;;;2.70;;
6531;SDS011;3299;42.004;24.868;2023-04-03T09:59:42;3.05;;;2.45;;
6531;SDS011;3299;42.004;24.868;2023-04-03T10:02:23;13.15;;;8.43;;
6531;SDS011;3299;42.004;24.868;2023-04-03T10:04:50;25.20;;;13.52;;
6531;SDS011;3299;42.004;24.868;2023-04-03T10:12:39;8.60;;;4.72;;
6531;SDS011;3299;42.004;24.868;2023-04-03T10:15:10;40.33;;;19.38;;
6531;SDS011;3299;42.004;24.868;2023-04-03T10:17:55;15.15;;;10.55;;
6531;SDS011;3299;42.004;24.868;2023-04-03T10:23:48;2.42;;;2.30;;
6531;SDS011;3299;42.004;24.868;2023-04-03T10:26:23;3.13;;;1.80;;
6531;SDS011;3299;42.004;24.868;2023-04-03T10:29:20;3.33;;;2.20;;
6531;SDS011;3299;42.004;24.868;2023-04-03T10:31:55;2.75;;;2.33;;
6531;SDS011;3299;42.004;24.868;2023-04-03T10:34:39;2.88;;;2.13;;
6531;SDS011;3299;42.004;24.868;2023-04-03T10:37:21;2.00;;;1.80;;
6531;SDS011;3299;42.004;24.868;2023-04-03T10:42:46;1.92;;;1.70;;
6531;SDS011;3299;42.004;24.868;2023-04-03T10:54:05;2.03;;;1.75;;
6531;SDS011;3299;42.004;24.868;2023-04-03T10:56:40;2.45;;;2.22;;
6531;SDS011;3299;42.004;24.868;2023-04-03T11:01:55;1.85;;;1.75;;
6531;SDS011;3299;42.004;24.868;2023-04-03T11:04:23;3.28;;;2.25;;
6531;SDS011;3299;42.004;24.868;2023-04-03T11:07:04;2.65;;;2.45;;
6531;SDS011;3299;42.004;24.868;2023-04-03T11:09:37;3.65;;;2.13;;
6531;SDS011;3299;42.004;24.868;2023-04-03T11:12:11;3.60;;;2.08;;
6531;SDS011;3299;42.004;24.868;2023-04-03T11:14:41;2.95;;;2.63;;
6531;SDS011;3299;42.004;24.868;2023-04-03T11:19:40;4.10;;;2.65;;
6531;SDS011;3299;42.004;24.868;2023-04-03T11:25:04;3.50;;;3.20;;
6531;SDS011;3299;42.004;24.868;2023-04-03T11:28:00;8.48;;;3.40;;
6531;SDS011;3299;42.004;24.868;2023-04-03T11:35:51;6.65;;;2.55;;
6531;SDS011;3299;42.004;24.868;2023-04-03T11:38:33;4.15;;;2.40;;
6531;SDS011;3299;42.004;24.868;2023-04-03T11:41:02;3.55;;;2.50;;
6531;SDS011;3299;42.004;24.868;2023-04-03T11:43:30;7.57;;;3.50;;
6531;SDS011;3299;42.004;24.868;2023-04-03T11:46:00;6.38;;;3.85;;
6531;SDS011;3299;42.004;24.868;2023-04-03T11:51:00;5.00;;;3.88;;
6531;SDS011;3299;42.004;24.868;2023-04-03T11:53:31;6.18;;;3.40;;
6531;SDS011;3299;42.004;24.868;2023-04-03T11:56:26;3.55;;;2.60;;
6531;SDS011;3299;42.004;24.868;2023-04-03T12:04:37;5.05;;;3.05;;
6531;SDS011;3299;42.004;24.868;2023-04-03T12:07:14;4.57;;;3.17;;
6531;SDS011;3299;42.004;24.868;2023-04-03T12:12:28;3.97;;;3.55;;
6531;SDS011;3299;42.004;24.868;2023-04-03T12:16:03;4.35;;;3.22;;
6531;SDS011;3299;42.004;24.868;2023-04-03T12:18:12;4.82;;;4.30;;
6531;SDS011;3299;42.004;24.868;2023-04-03T12:21:06;9.00;;;4.88;;
6531;SDS011;3299;42.004;24.868;2023-04-03T12:23:33;5.70;;;3.30;;
6531;SDS011;3299;42.004;24.868;2023-04-03T12:26:05;7.93;;;3.45;;
6531;SDS011;3299;42.004;24.868;2023-04-03T12:28:44;8.82;;;3.70;;
6531;SDS011;3299;42.004;24.868;2023-04-03T12:31:11;5.78;;;3.75;;
6531;SDS011;3299;42.004;24.868;2023-04-03T12:33:42;6.35;;;3.60;;
6531;SDS011;3299;42.004;24.868;2023-04-03T12:36:35;4.85;;;3.85;;
6531;SDS011;3299;42.004;24.868;2023-04-03T12:44:52;5.72;;;4.90;;
6531;SDS011;3299;42.004;24.868;2023-04-03T12:47:35;8.88;;;4.85;;
6531;SDS011;3299;42.004;24.868;2023-04-03T12:50:03;6.85;;;4.60;;
6531;SDS011;3299;42.004;24.868;2023-04-03T12:52:51;8.13;;;4.15;;
6531;SDS011;3299;42.004;24.868;2023-04-03T12:55:21;6.22;;;4.30;;
6531;SDS011;3299;42.004;24.868;2023-04-03T12:57:48;8.15;;;4.38;;
6531;SDS011;3299;42.004;24.868;2023-04-03T13:00:30;3.90;;;3.60;;
6531;SDS011;3299;42.004;24.868;2023-04-03T13:02:57;8.98;;;3.63;;
6531;SDS011;3299;42.004;24.868;2023-04-03T13:05:23;5.10;;;3.45;;
6531;SDS011;3299;42.004;24.868;2023-04-03T13:07:52;4.28;;;3.83;;
6531;SDS011;3299;42.004;24.868;2023-04-03T13:10:24;5.22;;;3.90;;
6531;SDS011;3299;42.004;24.868;2023-04-03T13:12:52;5.40;;;4.90;;
6531;SDS011;3299;42.004;24.868;2023-04-03T13:15:39;6.68;;;5.65;;
6531;SDS011;3299;42.004;24.868;2023-04-03T13:18:29;6.43;;;5.47;;
6531;SDS011;3299;42.004;24.868;2023-04-03T13:23:45;11.07;;;6.60;;
6531;SDS011;3299;42.004;24.868;2023-04-03T13:26:15;6.78;;;5.10;;
6531;SDS011;3299;42.004;24.868;2023-04-03T13:28:42;7.47;;;5.38;;
6531;SDS011;3299;42.004;24.868;2023-04-03T13:33:38;8.85;;;5.25;;
6531;SDS011;3299;42.004;24.868;2023-04-03T13:36:21;5.65;;;5.15;;
6531;SDS011;3299;42.004;24.868;2023-04-03T13:39:00;5.82;;;5.25;;
6531;SDS011;3299;42.004;24.868;2023-04-03T13:41:53;6.30;;;5.70;;
6531;SDS011;3299;42.004;24.868;2023-04-03T13:46:46;7.05;;;4.90;;
6531;SDS011;3299;42.004;24.868;2023-04-03T13:49:30;5.90;;;5.30;;
6531;SDS011;3299;42.004;24.868;2023-04-03T13:54:47;10.10;;;7.78;;
6531;SDS011;3299;42.004;24.868;2023-04-03T13:57:18;11.45;;;8.65;;
6531;SDS011;3299;42.004;24.868;2023-04-03T13:59:43;15.43;;;10.10;;
6531;SDS011;3299;42.004;24.868;2023-04-03T14:07:09;12.10;;;9.40;;
6531;SDS011;3299;42.004;24.868;2023-04-03T14:09:35;13.90;;;7.50;;
6531;SDS011;3299;42.004;24.868;2023-04-03T14:12:02;9.07;;;7.63;;
6531;SDS011;3299;42.004;24.868;2023-04-03T14:14:33;10.85;;;8.18;;
6531;SDS011;3299;42.004;24.868;2023-04-03T14:17:01;13.23;;;8.40;;
6531;SDS011;3299;42.004;24.868;2023-04-03T14:19:30;12.27;;;9.10;;
6531;SDS011;3299;42.004;24.868;2023-04-03T14:21:57;10.00;;;8.00;;
6531;SDS011;3299;42.004;24.868;2023-04-03T14:24:24;16.38;;;10.50;;
6531;SDS011;3299;42.004;24.868;2023-04-03T14:26:51;15.13;;;9.45;;
6531;SDS011;3299;42.004;24.868;2023-04-03T14:29:18;28.65;;;18.60;;
6531;SDS011;3299;42.004;24.868;2023-04-03T14:31:45;18.67;;;13.00;;
6531;SDS011;3299;42.004;24.868;2023-04-03T14:34:12;23.02;;;13.27;;
6531;SDS011;3299;42.004;24.868;2023-04-03T14:36:38;22.00;;;12.25;;
6531;SDS011;3299;42.004;24.868;2023-04-03T14:39:06;19.10;;;13.00;;
6531;SDS011;3299;42.004;24.868;2023-04-03T14:41:33;16.10;;;12.77;;
6531;SDS011;3299;42.004;24.868;2023-04-03T14:43:59;56.40;;;36.17;;
6531;SDS011;3299;42.004;24.868;2023-04-03T14:48:54;22.48;;;16.02;;
6531;SDS011;3299;42.004;24.868;2023-04-03T14:51:20;20.00;;;12.13;;
6531;SDS011;3299;42.004;24.868;2023-04-03T14:53:46;17.20;;;11.95;;
6531;SDS011;3299;42.004;24.868;2023-04-03T14:56:16;34.60;;;25.23;;
6531;SDS011;3299;42.004;24.868;2023-04-03T14:58:47;18.48;;;12.52;;
6531;SDS011;3299;42.004;24.868;2023-04-03T15:01:15;24.02;;;16.17;;
6531;SDS011;3299;42.004;24.868;2023-04-03T15:03:41;25.00;;;17.73;;
6531;SDS011;3299;42.004;24.868;2023-04-03T15:06:08;19.15;;;12.55;;
6531;SDS011;3299;42.004;24.868;2023-04-03T15:08:36;21.90;;;15.02;;
6531;SDS011;3299;42.004;24.868;2023-04-03T15:11:02;15.85;;;10.60;;
6531;SDS011;3299;42.004;24.868;2023-04-03T15:13:27;18.48;;;13.88;;
6531;SDS011;3299;42.004;24.868;2023-04-03T15:15:53;25.85;;;19.33;;
6531;SDS011;3299;42.004;24.868;2023-04-03T15:18:19;13.98;;;10.85;;
6531;SDS011;3299;42.004;24.868;2023-04-03T15:20:47;12.45;;;8.95;;
6531;SDS011;3299;42.004;24.868;2023-04-03T15:23:13;10.88;;;9.00;;
6531;SDS011;3299;42.004;24.868;2023-04-03T15:25:45;17.02;;;12.85;;
6531;SDS011;3299;42.004;24.868;2023-04-03T15:28:22;13.80;;;12.10;;
6531;SDS011;3299;42.004;24.868;2023-04-03T15:30:52;21.92;;;14.32;;
6531;SDS011;3299;42.004;24.868;2023-04-03T15:33:18;20.63;;;12.82;;
6531;SDS011;3299;42.004;24.868;2023-04-03T15:35:44;19.88;;;13.77;;
6531;SDS011;3299;42.004;24.868;2023-04-03T15:38:10;29.67;;;18.85;;
6531;SDS011;3299;42.004;24.868;2023-04-03T15:40:35;19.83;;;12.70;;
6531;SDS011;3299;42.004;24.868;2023-04-03T15:43:01;15.98;;;12.10;;
6531;SDS011;3299;42.004;24.868;2023-04-03T15:45:28;17.50;;;11.90;;
6531;SDS011;3299;42.004;24.868;2023-04-03T15:47:55;14.38;;;9.93;;
6531;SDS011;3299;42.004;24.868;2023-04-03T15:50:21;18.40;;;10.27;;
6531;SDS011;3299;42.004;24.868;2023-04-03T15:52:48;15.65;;;11.00;;
6531;SDS011;3299;42.004;24.868;2023-04-03T15:55:19;18.90;;;11.40;;
6531;SDS011;3299;42.004;24.868;2023-04-03T15:57:48;19.83;;;11.02;;
6531;SDS011;3299;42.004;24.868;2023-04-03T16:00:14;16.92;;;11.00;;
6531;SDS011;3299;42.004;24.868;2023-04-03T16:02:40;23.70;;;16.42;;
6531;SDS011;3299;42.004;24.868;2023-04-03T16:05:07;20.23;;;14.43;;
6531;SDS011;3299;42.004;24.868;2023-04-03T16:07:33;16.98;;;13.07;;
6531;SDS011;3299;42.004;24.868;2023-04-03T16:09:59;21.00;;;16.17;;
6531;SDS011;3299;42.004;24.868;2023-04-03T16:12:25;28.13;;;19.80;;
6531;SDS011;3299;42.004;24.868;2023-04-03T16:14:52;32.75;;;25.38;;
6531;SDS011;3299;42.004;24.868;2023-04-03T16:17:18;32.70;;;24.55;;
6531;SDS011;3299;42.004;24.868;2023-04-03T16:19:43;23.45;;;16.88;;
6531;SDS011;3299;42.004;24.868;2023-04-03T16:22:09;18.30;;;13.63;;
6531;SDS011;3299;42.004;24.868;2023-04-03T16:24:34;18.98;;;14.23;;
6531;SDS011;3299;42.004;24.868;2023-04-03T16:27:00;43.83;;;28.30;;
6531;SDS011;3299;42.004;24.868;2023-04-03T16:29:26;21.90;;;16.83;;
6531;SDS011;3299;42.004;24.868;2023-04-03T16:31:51;20.17;;;16.10;;
6531;SDS011;3299;42.004;24.868;2023-04-03T16:34:17;18.67;;;16.45;;
6531;SDS011;3299;42.004;24.868;2023-04-03T16:36:42;20.98;;;16.92;;
6531;SDS011;3299;42.004;24.868;2023-04-03T16:39:08;21.70;;;16.05;;